Time;durP1;ratioP1;P1;durP2;ratioP2;P2;SDS_P1;SDS_P2;PMS_P1;PMS_P2;Temp;Humidity;BMP_temperature;BMP_pressure;BME280_temperature;BME280_humidity;BME280_pressure;Samples;Min_cycle;Max_cycle;Signal;HPM_P1;HPM_P2
2021/12/08 05:51:27;;;;;;;0.73;0.73;;;;;;;1.35;100.00;97321.28;4935405;28;20216;-71
2021/12/08 05:53:58;;;;;;;0.57;0.57;;;;;;;1.35;100.00;97321.28;4964851;28;20399;-70
2021/12/08 05:56:24;;;;;;;0.68;0.68;;;;;;;1.33;100.00;97323.00;4858673;28;20047;-70
2021/12/08 05:58:51;;;;;;;0.60;0.60;;;;;;;1.30;100.00;97328.97;4899686;28;20043;-69
2021/12/08 06:01:22;;;;;;;0.68;0.68;;;;;;;1.35;100.00;97334.03;4856563;28;20122;-70
2021/12/08 06:03:49;;;;;;;1.48;1.38;;;;;;;1.38;100.00;97334.03;4901942;28;20577;-70
2021/12/08 06:06:19;;;;;;;0.90;0.90;;;;;;;1.37;100.00;97323.00;4853189;28;20034;-70
2021/12/08 06:08:45;;;;;;;1.10;1.10;;;;;;;1.35;100.00;97311.06;4907912;28;20048;-70
2021/12/08 06:11:11;;;;;;;0.60;0.60;;;;;;;1.37;100.00;97317.03;4902118;28;20038;-70
2021/12/08 06:13:39;;;;;;;0.93;0.93;;;;;;;1.35;100.00;97313.63;4876830;28;20056;-70
2021/12/08 06:16:05;;;;;;;1.48;0.80;;;;;;;1.34;100.00;97309.38;4911545;28;20078;-70
2021/12/08 06:18:37;;;;;;;0.93;0.93;;;;;;;1.31;100.00;97315.38;4908463;28;20100;-70
2021/12/08 06:21:11;;;;;;;0.57;0.57;;;;;;;1.32;100.00;97323.88;5009203;28;20029;-70
2021/12/08 06:23:38;;;;;;;1.55;1.25;;;;;;;1.36;100.00;97312.81;5009249;28;20038;-70
2021/12/08 06:26:05;;;;;;;0.82;0.82;;;;;;;1.37;100.00;97306.84;5009092;28;20030;-70
2021/12/08 06:28:30;;;;;;;1.95;1.27;;;;;;;1.36;100.00;97302.59;5009081;28;20026;-70
2021/12/08 06:30:56;;;;;;;1.65;1.58;;;;;;;1.37;100.00;97306.84;5009111;28;20472;-70
2021/12/08 06:33:21;;;;;;;1.85;1.75;;;;;;;1.42;100.00;97303.41;5009194;28;20026;-70
2021/12/08 06:35:54;;;;;;;0.80;0.80;;;;;;;1.42;100.00;97298.28;5006530;28;20383;-70
2021/12/08 06:38:19;;;;;;;0.82;0.82;;;;;;;1.40;100.00;97305.13;4997376;28;20034;-70
2021/12/08 06:40:57;;;;;;;1.90;1.80;;;;;;;1.40;100.00;97304.25;4958418;28;20042;-70
2021/12/08 06:43:28;;;;;;;1.98;1.73;;;;;;;1.43;100.00;97294.03;5008954;28;20022;-70
2021/12/08 06:45:56;;;;;;;1.00;1.00;;;;;;;1.44;100.00;97295.72;5008536;28;20380;-70
2021/12/08 06:48:28;;;;;;;1.25;1.15;;;;;;;1.43;100.00;97296.59;5008635;28;20034;-70
2021/12/08 06:51:06;;;;;;;2.45;1.45;;;;;;;1.41;100.00;97283.84;4975387;28;20564;-70
2021/12/08 06:53:32;;;;;;;1.02;1.02;;;;;;;1.42;100.00;97282.13;5028311;28;20036;-70
2021/12/08 06:56:09;;;;;;;1.17;1.17;;;;;;;1.37;100.00;97288.97;5028035;28;20497;-70
2021/12/08 06:58:37;;;;;;;0.75;0.75;;;;;;;1.36;100.00;97292.38;5028231;28;20040;-70
2021/12/08 07:01:22;;;;;;;1.05;1.05;;;;;;;1.37;100.00;97288.97;5022648;28;20026;-71
2021/12/08 07:04:10;;;;;;;1.08;1.08;;;;;;;1.39;100.00;97292.34;5015147;28;20062;-70
2021/12/08 07:09:25;;;;;;;1.70;1.60;;;;;;;1.42;100.00;97311.06;5006610;28;20037;-70
2021/12/08 07:11:54;;;;;;;1.02;1.02;;;;;;;1.47;100.00;97313.56;4908017;28;20041;-70
2021/12/08 07:14:20;;;;;;;1.25;1.25;;;;;;;1.48;100.00;97323.75;5034560;28;20370;-70
2021/12/08 07:16:49;;;;;;;0.90;0.90;;;;;;;1.49;100.00;97324.63;5034342;28;20111;-70
2021/12/08 07:19:28;;;;;;;1.00;1.00;;;;;;;1.51;100.00;97312.72;5034416;28;20156;-70
2021/12/08 07:21:56;;;;;;;1.08;1.08;;;;;;;1.51;100.00;97302.50;5034360;28;20030;-70
2021/12/08 07:24:26;;;;;;;1.00;1.00;;;;;;;1.49;100.00;97299.09;5034482;28;20371;-70
2021/12/08 07:26:53;;;;;;;;;;;;;;;1.55;100.00;97314.38;5033310;28;20071;-70
2021/12/08 07:29:27;;;;;;;0.80;0.80;;;;;;;1.64;100.00;97304.09;5034240;28;19920;-70
2021/12/08 07:32:00;;;;;;;2.25;1.30;;;;;;;1.69;100.00;97311.72;5034369;28;20108;-70
2021/12/08 07:34:28;;;;;;;2.33;2.13;;;;;;;1.61;100.00;97304.13;5034576;28;20029;-70
2021/12/08 07:37:02;;;;;;;0.80;0.80;;;;;;;1.62;100.00;97290.50;5026316;28;20083;-70
2021/12/08 07:39:32;;;;;;;1.45;1.40;;;;;;;1.62;100.00;97292.22;5025873;28;20437;-70
2021/12/08 07:42:08;;;;;;;1.40;1.40;;;;;;;1.68;100.00;97294.72;5034575;28;20025;-70
2021/12/08 07:44:34;;;;;;;1.80;1.73;;;;;;;1.77;100.00;97307.41;5033942;28;20521;-70
2021/12/08 07:47:06;;;;;;;1.55;1.45;;;;;;;1.88;100.00;97307.34;5033618;28;20033;-70
2021/12/08 07:49:38;;;;;;;1.80;1.70;;;;;;;1.92;100.00;97306.47;5033597;28;20482;-70
2021/12/08 07:52:23;;;;;;;4.07;1.90;;;;;;;1.97;100.00;97304.72;5034074;28;20034;-71
2021/12/08 07:54:50;;;;;;;0.63;0.63;;;;;;;2.02;100.00;97305.53;5033795;28;20025;-70
2021/12/08 07:57:25;;;;;;;0.90;0.90;;;;;;;1.97;100.00;97297.06;5033456;28;20516;-70
2021/12/08 07:59:54;;;;;;;2.05;1.73;;;;;;;1.96;100.00;97295.38;5033930;28;20095;-70
2021/12/08 08:02:25;;;;;;;2.58;2.38;;;;;;;1.88;100.00;97289.47;5033696;28;20482;-70
2021/12/08 08:04:52;;;;;;;1.75;1.52;;;;;;;1.87;100.00;97285.22;5033661;28;20026;-70
2021/12/08 08:07:19;;;;;;;1.52;1.52;;;;;;;1.88;100.00;97280.09;5025419;28;20509;-70
2021/12/08 08:09:47;;;;;;;0.98;0.98;;;;;;;1.84;100.00;97280.13;5024882;28;20037;-70
2021/12/08 08:12:22;;;;;;;0.93;0.93;;;;;;;1.89;100.00;97284.38;5032925;28;20497;-70
2021/12/08 08:14:53;;;;;;;0.85;0.85;;;;;;;1.89;100.00;97289.47;5033455;28;20029;-71
2021/12/08 08:17:28;;;;;;;6.07;1.25;;;;;;;1.94;100.00;97304.75;5033042;28;20470;-70
2021/12/08 08:19:55;;;;;;;2.83;2.63;;;;;;;2.03;100.00;97302.09;5033511;28;20387;-70
2021/12/08 08:22:28;;;;;;;2.28;2.17;;;;;;;2.15;100.00;97290.97;5033166;28;20100;-70
2021/12/08 08:24:56;;;;;;;1.13;1.13;;;;;;;2.20;100.00;97287.50;5033607;28;20033;-70
2021/12/08 08:27:23;;;;;;;1.48;1.33;;;;;;;2.21;100.00;97285.78;5032925;28;20022;-71
2021/12/08 08:29:49;;;;;;;1.17;1.17;;;;;;;2.29;100.00;97279.75;5033149;28;20037;-70
2021/12/08 08:32:23;;;;;;;1.25;1.25;;;;;;;2.37;100.00;97277.13;5031833;28;20078;-71
2021/12/08 08:34:53;;;;;;;1.23;1.23;;;;;;;2.46;100.00;97271.06;5032990;28;20025;-71
2021/12/08 08:37:19;;;;;;;;;;;;;;;2.39;100.00;97282.22;5025373;28;20049;-70
2021/12/08 08:39:51;;;;;;;1.95;1.85;;;;;;;2.45;100.00;97282.16;5024675;28;19931;-70
2021/12/08 08:42:20;;;;;;;4.05;1.88;;;;;;;2.34;100.00;97292.47;5032892;28;20022;-70
2021/12/08 08:45:00;;;;;;;1.98;1.88;;;;;;;2.42;100.00;97290.72;5032841;28;20025;-70
2021/12/08 08:47:33;;;;;;;4.53;2.13;;;;;;;2.46;100.00;97294.06;5032552;28;20037;-70
2021/12/08 08:49:58;;;;;;;1.27;1.10;;;;;;;2.56;100.00;97293.09;5032668;28;20032;-70
2021/12/08 08:52:35;;;;;;;2.08;1.98;;;;;;;2.61;100.00;97296.50;5033045;28;20018;-70
2021/12/08 08:55:10;;;;;;;1.65;1.58;;;;;;;2.55;100.00;97286.31;5032825;28;20108;-71
2021/12/08 08:57:38;;;;;;;0.82;0.82;;;;;;;2.63;100.00;97281.97;5032372;28;20040;-70
2021/12/08 09:00:12;;;;;;;1.60;1.60;;;;;;;2.64;100.00;97263.19;5032706;28;20029;-70
2021/12/08 09:02:38;;;;;;;1.63;1.52;;;;;;;2.78;100.00;97269.00;5032682;28;20021;-70
2021/12/08 09:05:18;;;;;;;2.30;1.35;;;;;;;2.91;100.00;97290.19;5032674;28;20135;-71
2021/12/08 09:07:46;;;;;;;2.63;2.28;;;;;;;2.99;100.00;97308.81;5022192;28;20025;-70
2021/12/08 09:10:34;;;;;;;2.30;2.00;;;;;;;2.96;100.00;97319.09;5025605;28;20029;-70
2021/12/08 09:13:05;;;;;;;1.63;1.58;;;;;;;2.93;100.00;97313.16;5032235;28;20036;-71
2021/12/08 09:15:33;;;;;;;1.52;1.42;;;;;;;3.01;100.00;97321.63;5032362;28;20029;-70
2021/12/08 09:18:04;;;;;;;1.95;1.85;;;;;;;3.15;100.00;97319.75;5032157;28;20025;-71
2021/12/08 09:20:45;;;;;;;2.42;2.25;;;;;;;3.05;100.00;97336.06;5032292;28;20104;-70
2021/12/08 09:23:20;;;;;;;3.35;2.50;;;;;;;3.02;100.00;97333.53;5032360;28;20052;-70
2021/12/08 09:25:59;;;;;;;4.05;2.08;;;;;;;2.97;100.00;97332.75;5031983;28;20104;-70
2021/12/08 09:28:31;;;;;;;2.10;2.00;;;;;;;2.92;100.00;97331.94;5032170;28;20025;-70
2021/12/08 09:31:06;;;;;;;2.33;2.22;;;;;;;3.00;100.00;97340.41;5032085;28;20139;-71
2021/12/08 09:33:39;;;;;;;3.92;2.58;;;;;;;3.04;100.00;97331.78;5032068;28;20026;-70
2021/12/08 09:36:18;;;;;;;2.65;2.45;;;;;;;3.09;100.00;97327.47;5027438;28;20021;-71
2021/12/08 09:39:24;;;;;;;2.35;1.60;;;;;;;3.12;100.00;97326.59;5022672;28;20376;-70
2021/12/08 09:41:58;;;;;;;0.70;0.70;;;;;;;3.13;100.00;97320.59;5030866;28;20564;-70
2021/12/08 09:44:29;;;;;;;2.75;2.28;;;;;;;3.14;100.00;97307.78;5032127;28;20124;-70
2021/12/08 09:46:55;;;;;;;4.18;3.78;;;;;;;3.11;100.00;97305.28;5031755;28;20096;-70
2021/12/08 09:49:24;;;;;;;1.45;1.42;;;;;;;3.09;100.00;97309.56;5031796;28;20030;-70
2021/12/08 09:51:51;;;;;;;1.70;1.63;;;;;;;3.09;100.00;97299.31;5031785;28;20025;-70
2021/12/08 09:54:17;;;;;;;2.58;2.08;;;;;;;3.13;100.00;97295.03;5031833;28;20033;-70
2021/12/08 09:56:45;;;;;;;3.15;2.95;;;;;;;3.17;100.00;97294.97;5030404;28;20083;-70
2021/12/08 09:59:11;;;;;;;2.28;2.15;;;;;;;3.16;100.00;97295.00;5031984;28;20014;-70
2021/12/08 10:01:40;;;;;;;1.95;1.85;;;;;;;3.19;100.00;97294.94;5031832;28;20025;-70
2021/12/08 10:04:06;;;;;;;2.33;1.53;;;;;;;3.20;100.00;97291.53;5031908;28;20080;-70
2021/12/08 10:06:31;;;;;;;5.95;3.83;;;;;;;3.16;100.00;97293.28;5023475;28;20022;-70
2021/12/08 10:08:59;;;;;;;1.52;1.42;;;;;;;3.17;100.00;97291.56;5023398;28;20026;-70
2021/12/08 10:11:27;;;;;;;2.15;2.05;;;;;;;3.17;100.00;97292.41;5031854;28;20389;-70
2021/12/08 10:13:53;;;;;;;2.63;1.80;;;;;;;3.22;100.00;97293.19;5031721;28;20032;-70
2021/12/08 10:16:20;;;;;;;2.95;2.75;;;;;;;3.27;100.00;97293.97;5031480;28;20025;-70
2021/12/08 10:18:46;;;;;;;1.90;1.80;;;;;;;3.33;100.00;97299.00;5031634;28;20506;-70
2021/12/08 10:21:14;;;;;;;1.83;1.73;;;;;;;3.39;100.00;97303.22;5031773;28;20029;-71
2021/12/08 10:23:43;;;;;;;3.80;1.65;;;;;;;3.49;100.00;97309.06;5014418;28;20030;-70
2021/12/08 10:26:08;;;;;;;1.83;1.67;;;;;;;3.49;100.00;97307.34;5031460;28;20426;-70
2021/12/08 10:28:45;;;;;;;2.95;2.75;;;;;;;3.56;100.00;97305.53;5031640;28;20033;-70
2021/12/08 10:31:33;;;;;;;2.45;2.35;;;;;;;3.51;100.00;97309.88;5031584;28;20065;-71
2021/12/08 10:34:21;;;;;;;1.20;1.10;;;;;;;3.46;100.00;97309.09;5031632;28;20025;-70
2021/12/08 10:37:04;;;;;;;1.92;1.83;;;;;;;3.40;100.00;97289.56;4986980;28;20037;-70
2021/12/08 10:39:30;;;;;;;1.90;1.77;;;;;;;3.35;100.00;97289.63;5007192;28;20092;-70
2021/12/08 10:41:55;;;;;;;2.20;2.03;;;;;;;3.34;100.00;97279.41;5015303;28;20471;-70
2021/12/08 10:44:24;;;;;;;3.80;2.47;;;;;;;3.39;100.00;97276.78;5015470;28;20025;-70
2021/12/08 10:46:55;;;;;;;2.80;1.95;;;;;;;3.39;100.00;97266.53;5015054;28;20037;-70
2021/12/08 10:54:23;;;;;;;1.63;1.52;;;;;;;3.41;100.00;97262.22;5015300;28;20136;-70
2021/12/08 10:54:53;;;;;;;3.05;2.30;;;;;;;3.60;100.00;97250.84;5015195;28;20133;-70
2021/12/08 10:57:21;;;;;;;2.00;1.80;;;;;;;3.54;100.00;97246.69;5014978;28;20526;-70
2021/12/08 11:00:32;;;;;;;4.70;1.55;;;;;;;3.49;100.00;97238.22;5015194;28;20022;-70
2021/12/08 11:03:08;;;;;;;3.40;2.17;;;;;;;3.54;100.00;97235.59;4981938;28;20038;-70
2021/12/08 11:05:47;;;;;;;1.67;1.35;;;;;;;3.64;100.00;97238.88;5014685;28;20132;-70
2021/12/08 11:08:15;;;;;;;1.02;1.02;;;;;;;3.60;100.00;97235.50;5003440;28;20026;-70
2021/12/08 11:10:51;;;;;;;1.23;1.23;;;;;;;3.66;100.00;97235.38;5013339;28;20033;-70
2021/12/08 11:13:24;;;;;;;1.67;1.58;;;;;;;3.78;100.00;97234.38;5014754;28;20029;-72
2021/12/08 11:16:01;;;;;;;4.50;3.40;;;;;;;3.85;100.00;97231.66;5014623;28;20087;-70
2021/12/08 11:18:30;;;;;;;1.45;1.45;;;;;;;3.85;100.00;97230.81;5014740;28;20140;-71
2021/12/08 11:20:59;;;;;;;1.95;1.85;;;;;;;3.92;100.00;97240.13;5014702;28;20022;-70
2021/12/08 11:23:40;;;;;;;2.25;2.15;;;;;;;4.07;100.00;97236.44;5014574;28;20034;-71
2021/12/08 11:26:13;;;;;;;3.22;1.83;;;;;;;4.04;100.00;97237.34;5014489;28;20025;-71
2021/12/08 11:28:40;;;;;;;4.50;2.13;;;;;;;4.06;100.00;97230.47;5014548;28;20025;-71
2021/12/08 11:31:12;;;;;;;2.08;1.98;;;;;;;4.05;100.00;97227.94;5014803;28;20541;-72
2021/12/08 11:33:41;;;;;;;2.42;2.03;;;;;;;4.11;100.00;97222.72;5014421;28;20088;-67
2021/12/08 11:36:18;;;;;;;;;;;;;;;4.04;100.00;97210.88;5009554;28;20507;-67
2021/12/08 11:38:45;;;;;;;1.75;1.30;;;;;;;4.01;100.00;97210.91;5005011;28;20040;-67
2021/12/08 11:41:34;;;;;;;2.47;2.28;;;;;;;4.07;100.00;97203.13;5014394;28;20113;-67
2021/12/08 11:44:02;;;;;;;9.43;2.47;;;;;;;3.98;100.00;97200.72;5014236;28;20026;-67
2021/12/08 11:46:28;;;;;;;1.85;1.75;;;;;;;4.01;100.00;97198.09;5013935;28;20033;-67
2021/12/08 11:49:04;;;;;;;3.08;2.53;;;;;;;4.13;100.00;97190.19;5013722;28;20386;-67
2021/12/08 11:51:32;;;;;;;4.15;3.75;;;;;;;4.27;100.00;97184.81;5014336;28;20030;-67
2021/12/08 11:53:59;;;;;;;1.77;1.67;;;;;;;4.25;100.00;97192.53;5014102;28;20025;-66
2021/12/08 11:56:32;;;;;;;4.70;3.40;;;;;;;4.24;100.00;97193.41;5013807;28;20105;-66
2021/12/08 11:58:59;;;;;;;1.13;1.13;;;;;;;4.30;100.00;97198.44;5013884;28;20049;-67
2021/12/08 12:01:24;;;;;;;1.98;1.77;;;;;;;4.27;100.00;97195.91;5013958;28;20041;-67
2021/12/08 12:03:50;;;;;;;5.38;3.13;;;;;;;4.27;100.00;97198.50;5013837;28;20025;-67
2021/12/08 12:06:15;;;;;;;2.38;1.25;;;;;;;4.24;100.00;97198.53;5007472;28;20058;-67
2021/12/08 12:08:41;;;;;;;1.10;1.10;;;;;;;4.22;100.00;97207.13;5004092;28;20480;-67
2021/12/08 12:11:06;;;;;;;1.27;1.25;;;;;;;4.22;100.00;97207.97;5013715;28;20092;-67
2021/12/08 12:13:31;;;;;;;1.75;1.65;;;;;;;3.89;100.00;97216.25;5013686;28;20053;-67
2021/12/08 12:15:57;;;;;;;2.45;1.60;;;;;;;3.82;100.00;97206.13;5013346;28;20022;-67
2021/12/08 12:18:30;;;;;;;1.52;1.42;;;;;;;3.69;100.00;97209.75;5013601;28;20042;-67
2021/12/08 12:21:00;;;;;;;2.20;2.00;;;;;;;3.60;100.00;97210.72;5013616;28;20052;-67
2021/12/08 12:23:31;;;;;;;;;;;;;;;3.65;100.00;97220.91;5014139;28;20022;-67
2021/12/08 12:26:06;;;;;;;1.65;1.63;;;;;;;3.54;100.00;97217.66;5013117;28;19910;-67
2021/12/08 12:28:51;;;;;;;1.75;1.67;;;;;;;3.54;100.00;97223.63;5013769;28;20101;-67
2021/12/08 12:31:49;;;;;;;1.23;1.23;;;;;;;3.54;100.00;97220.22;5013775;28;20042;-67
2021/12/08 12:34:36;;;;;;;1.40;1.40;;;;;;;3.52;100.00;97211.72;5013369;28;20033;-67
2021/12/08 12:37:29;;;;;;;5.60;1.75;;;;;;;3.55;100.00;97207.41;5005442;28;20029;-67
2021/12/08 12:39:57;;;;;;;1.48;1.42;;;;;;;3.56;100.00;97218.47;4997798;28;20034;-67
2021/12/08 12:42:25;;;;;;;2.47;1.90;;;;;;;3.53;100.00;97213.41;5013209;28;20033;-67
2021/12/08 12:44:56;;;;;;;1.50;1.40;;;;;;;3.60;100.00;97220.13;5012997;28;20486;-67
2021/12/08 12:47:24;;;;;;;2.42;2.22;;;;;;;3.71;100.00;97220.78;5011580;28;20033;-67
2021/12/08 12:50:11;;;;;;;2.95;2.50;;;;;;;3.71;100.00;97225.91;5013004;28;20030;-67
2021/12/08 12:52:43;;;;;;;2.47;2.28;;;;;;;3.78;100.00;97209.59;5013154;28;20478;-67
2021/12/08 12:55:12;;;;;;;1.40;1.30;;;;;;;3.77;100.00;97196.78;5012899;28;20037;-67
2021/12/08 12:57:59;;;;;;;1.70;1.60;;;;;;;3.77;100.00;97184.84;5012931;28;20018;-67
2021/12/08 13:00:28;;;;;;;2.22;2.08;;;;;;;3.78;100.00;97173.75;5012465;28;20030;-67
2021/12/08 13:02:53;;;;;;;1.73;1.42;;;;;;;3.84;100.00;97172.78;5011405;28;20032;-67
2021/12/08 13:05:19;;;;;;;2.00;1.10;;;;;;;3.83;100.00;97166.81;5012821;28;20022;-67
2021/12/08 13:07:59;;;;;;;1.17;1.17;;;;;;;3.94;100.00;97158.09;5002279;28;20368;-67
2021/12/08 13:10:38;;;;;;;3.05;1.33;;;;;;;4.03;100.00;97169.03;5009162;28;20022;-67
2021/12/08 13:13:09;;;;;;;1.65;1.63;;;;;;;4.02;100.00;97163.94;5012691;28;20053;-67
2021/12/08 13:15:36;;;;;;;1.73;1.65;;;;;;;4.02;100.00;97162.22;5012640;28;20025;-67
2021/12/08 13:18:11;;;;;;;1.30;1.23;;;;;;;4.03;100.00;97174.16;5012397;28;20022;-67
2021/12/08 13:20:44;;;;;;;1.58;1.48;;;;;;;3.96;100.00;97172.56;5012864;28;20383;-67
2021/12/08 13:23:12;;;;;;;3.25;2.80;;;;;;;3.85;100.00;97159.94;5012646;28;20068;-67
2021/12/08 13:26:02;;;;;;;1.67;1.58;;;;;;;3.80;100.00;97142.97;5011287;28;20052;-67
2021/12/08 13:29:01;;;;;;;1.55;1.45;;;;;;;3.75;100.00;97137.91;5012380;28;20033;-67
2021/12/08 13:33:59;;;;;;;1.63;1.55;;;;;;;3.75;100.00;97145.59;5012485;28;20078;-67
2021/12/08 13:36:31;;;;;;;1.70;1.63;;;;;;;3.74;100.00;97151.59;5004732;28;20046;-67
2021/12/08 13:38:56;;;;;;;1.60;1.60;;;;;;;3.65;100.00;97174.81;5003812;28;20029;-67
2021/12/08 13:41:22;;;;;;;1.70;1.60;;;;;;;3.65;100.00;97182.50;5004803;28;20095;-67
2021/12/08 13:43:52;;;;;;;1.77;1.77;;;;;;;3.59;100.00;97164.66;5003375;28;20025;-67
2021/12/08 13:46:36;;;;;;;1.42;1.33;;;;;;;3.58;100.00;97170.66;5012099;28;20030;-67
2021/12/08 13:49:19;;;;;;;2.92;2.13;;;;;;;3.59;100.00;97183.44;5011980;28;20033;-67
2021/12/08 13:52:19;;;;;;;2.85;2.25;;;;;;;3.54;100.00;97172.44;5012291;28;20026;-67
2021/12/08 13:54:47;;;;;;;3.10;2.70;;;;;;;3.56;100.00;97172.38;5004552;28;20034;-67
2021/12/08 13:57:32;;;;;;;1.70;1.60;;;;;;;3.62;100.00;97177.41;5006010;28;20073;-67
2021/12/08 14:00:16;;;;;;;3.60;3.30;;;;;;;3.62;100.00;97190.22;5003757;28;20026;-67
2021/12/08 14:02:54;;;;;;;2.00;1.90;;;;;;;3.57;100.00;97184.31;5012314;28;20099;-67
2021/12/08 14:05:28;;;;;;;3.22;2.65;;;;;;;3.59;100.00;97182.59;5005846;28;20033;-67
2021/12/08 14:08:05;;;;;;;2.08;1.88;;;;;;;3.64;100.00;97191.03;5000415;28;20546;-67
2021/12/08 14:10:35;;;;;;;1.40;1.40;;;;;;;3.62;100.00;97187.66;5009053;28;20109;-67
2021/12/08 14:13:04;;;;;;;4.53;2.70;;;;;;;3.62;100.00;97187.66;5016109;28;20029;-67
2021/12/08 14:15:46;;;;;;;0.77;0.77;;;;;;;3.64;100.00;97188.50;5015733;28;20182;-67
2021/12/08 14:18:20;;;;;;;2.25;2.15;;;;;;;3.61;100.00;97197.03;5015902;28;20495;-67
2021/12/08 14:20:50;;;;;;;2.47;2.28;;;;;;;3.67;100.00;97196.09;5015807;28;20345;-67
2021/12/08 14:23:16;;;;;;;1.33;1.33;;;;;;;3.70;100.00;97201.19;5016057;28;20026;-66
2021/12/08 14:25:47;;;;;;;2.60;1.42;;;;;;;3.65;100.00;97195.28;5015431;28;20025;-67
2021/12/08 14:28:38;;;;;;;1.38;1.38;;;;;;;3.60;100.00;97199.66;5015910;28;20025;-67
2021/12/08 14:31:31;;;;;;;2.55;2.45;;;;;;;3.55;100.00;97201.44;5002382;28;20123;-67
2021/12/08 14:33:56;;;;;;;2.05;1.95;;;;;;;3.52;100.00;97183.53;4992970;28;20519;-67
2021/12/08 14:36:50;;;;;;;1.73;1.70;;;;;;;3.67;100.00;97195.25;4995615;28;20025;-67
2021/12/08 14:39:38;;;;;;;2.83;2.53;;;;;;;3.77;100.00;97201.91;5006267;28;20034;-67
2021/12/08 14:42:09;;;;;;;4.03;2.42;;;;;;;3.68;100.00;97202.94;5008780;28;20026;-67
2021/12/08 14:44:45;;;;;;;3.53;2.15;;;;;;;3.65;100.00;97204.69;5013065;28;20061;-67
2021/12/08 14:47:13;;;;;;;4.05;3.72;;;;;;;3.60;100.00;97207.31;5015095;28;20026;-67
2021/12/08 14:49:42;;;;;;;1.45;1.35;;;;;;;3.61;100.00;97201.31;5015169;28;20160;-67
2021/12/08 14:52:12;;;;;;;3.72;2.90;;;;;;;3.66;100.00;97199.53;5015378;28;20026;-67
2021/12/08 14:54:41;;;;;;;2.92;2.72;;;;;;;3.61;100.00;97206.44;5015344;28;20084;-67
2021/12/08 14:57:23;;;;;;;2.95;2.75;;;;;;;3.59;100.00;97205.66;5014997;28;20141;-67
2021/12/08 15:00:00;;;;;;;2.08;1.90;;;;;;;3.60;100.00;97197.94;5015167;28;20030;-67
2021/12/08 15:02:32;;;;;;;3.50;2.50;;;;;;;3.68;100.00;97200.38;5014959;28;20025;-67
2021/12/08 15:05:04;;;;;;;2.80;2.70;;;;;;;3.63;100.00;97209.84;5015051;28;20037;-67
2021/12/08 15:07:31;;;;;;;2.20;2.03;;;;;;;3.61;100.00;97206.44;5006697;28;20057;-67
2021/12/08 15:10:00;;;;;;;6.63;4.80;;;;;;;3.58;100.00;97209.06;5002977;28;20030;-67
2021/12/08 15:12:25;;;;;;;5.13;4.53;;;;;;;3.55;100.00;97201.44;5003317;28;20518;-68
2021/12/08 15:14:51;;;;;;;5.43;3.75;;;;;;;3.50;100.00;97198.09;5014615;28;20053;-68
2021/12/08 15:17:27;;;;;;;2.13;1.98;;;;;;;3.48;100.00;97199.81;5014615;28;20056;-67
2021/12/08 15:19:53;;;;;;;2.75;2.55;;;;;;;3.48;100.00;97194.69;5015009;28;20072;-67
2021/12/08 15:22:26;;;;;;;4.85;2.53;;;;;;;3.49;100.00;97196.41;5013025;28;20040;-67
2021/12/08 15:25:13;;;;;;;3.38;2.85;;;;;;;3.60;100.00;97209.88;5014630;28;20044;-67
2021/12/08 15:27:39;;;;;;;4.40;2.92;;;;;;;3.65;100.00;97213.22;5014521;28;20029;-67
2021/12/08 15:30:10;;;;;;;11.18;5.82;;;;;;;3.54;100.00;97199.75;5014567;28;20083;-67
2021/12/08 15:32:36;;;;;;;6.78;5.25;;;;;;;3.57;100.00;97215.03;5014500;28;20026;-67
2021/12/08 15:35:05;;;;;;;2.28;2.15;;;;;;;3.65;100.00;97218.34;5014390;28;20076;-67
2021/12/08 15:37:31;;;;;;;2.75;2.33;;;;;;;3.55;100.00;97217.63;5005947;28;20471;-66
2021/12/08 15:39:58;;;;;;;3.60;2.50;;;;;;;3.58;100.00;97217.59;5003464;28;20103;-67
2021/12/08 15:42:24;;;;;;;2.30;2.10;;;;;;;3.65;100.00;97213.22;5002744;28;20022;-67
2021/12/08 15:44:55;;;;;;;2.17;2.08;;;;;;;3.54;100.00;97210.00;5014198;28;20018;-67
2021/12/08 15:47:20;;;;;;;1.80;1.75;;;;;;;3.55;100.00;97206.56;5014130;28;20442;-67
2021/12/08 15:49:45;;;;;;;1.35;1.20;;;;;;;3.53;100.00;97208.28;5013958;28;20121;-66
2021/12/08 15:52:20;;;;;;;2.22;2.13;;;;;;;3.50;100.00;97203.22;5014059;28;20072;-67
2021/12/08 15:54:47;;;;;;;2.05;1.95;;;;;;;3.53;100.00;97209.16;5014278;28;20379;-67
2021/12/08 15:57:22;;;;;;;1.23;1.23;;;;;;;3.52;100.00;97211.72;5013805;28;20097;-67
2021/12/08 15:59:51;;;;;;;2.97;2.03;;;;;;;3.49;100.00;97216.91;5013944;28;20040;-67
2021/12/08 16:02:28;;;;;;;6.22;3.42;;;;;;;3.49;100.00;97233.09;5013964;28;20434;-67
2021/12/08 16:05:05;;;;;;;2.05;1.95;;;;;;;3.50;100.00;97236.50;5013828;28;20033;-67
2021/12/08 16:07:33;;;;;;;2.63;2.42;;;;;;;3.48;100.00;97245.91;5005539;28;20036;-67
2021/12/08 16:09:58;;;;;;;2.40;1.83;;;;;;;3.49;100.00;97232.25;5001302;28;20031;-67
2021/12/08 16:12:24;;;;;;;1.60;1.50;;;;;;;3.47;100.00;97228.84;4994084;28;20033;-67
2021/12/08 16:14:54;;;;;;;3.47;2.08;;;;;;;3.48;100.00;97225.41;4994128;28;20446;-67
2021/12/08 16:17:24;;;;;;;;;;;;;;;3.49;100.00;97227.13;4994118;28;20026;-67
2021/12/08 16:20:16;;;;;;;6.60;1.88;;;;;;;3.47;100.00;97218.63;4994215;28;19909;-67
2021/12/08 16:22:43;;;;;;;3.90;2.65;;;;;;;3.47;100.00;97219.47;4994124;28;20057;-67
2021/12/08 16:25:10;;;;;;;4.38;2.38;;;;;;;3.46;100.00;97219.50;4993868;28;20538;-67
2021/12/08 16:27:36;;;;;;;3.25;2.90;;;;;;;3.46;100.00;97227.16;4993682;28;20073;-67
2021/12/08 16:30:04;;;;;;;5.38;3.67;;;;;;;3.44;100.00;97239.16;4993688;28;20022;-67
2021/12/08 16:32:29;;;;;;;3.33;2.70;;;;;;;3.38;100.00;97244.34;4993573;28;20085;-67
2021/12/08 16:34:59;;;;;;;1.95;1.85;;;;;;;3.32;100.00;97229.94;4993016;28;20034;-67
2021/12/08 16:37:26;;;;;;;2.30;1.48;;;;;;;3.33;100.00;97235.00;5001154;28;20021;-67
2021/12/08 16:45:08;;;;;;;2.28;1.83;;;;;;;3.21;100.00;97253.13;5013365;28;20411;-67
2021/12/08 16:47:34;;;;;;;2.33;2.17;;;;;;;3.16;100.00;97249.78;5012745;28;20474;-67
2021/12/08 16:49:59;;;;;;;2.65;2.08;;;;;;;3.19;100.00;97252.31;5012931;28;20040;-67
2021/12/08 16:52:25;;;;;;;2.80;2.22;;;;;;;3.21;100.00;97260.78;5012982;28;20028;-67
2021/12/08 16:54:52;;;;;;;3.40;2.08;;;;;;;3.34;100.00;97270.00;5012890;28;20037;-67
2021/12/08 16:57:18;;;;;;;3.65;2.10;;;;;;;3.33;100.00;97273.41;5012753;28;20450;-67
2021/12/08 16:59:44;;;;;;;2.80;2.15;;;;;;;3.35;100.00;97275.97;5012803;28;20112;-67
2021/12/08 17:02:09;;;;;;;2.92;2.65;;;;;;;3.29;100.00;97282.03;5012634;28;20064;-67
2021/12/08 17:04:35;;;;;;;2.53;2.33;;;;;;;3.37;100.00;97278.50;5012679;28;20033;-66
2021/12/08 17:07:00;;;;;;;2.38;2.28;;;;;;;3.35;100.00;97281.09;5004726;28;20034;-66
2021/12/08 17:09:26;;;;;;;1.48;1.38;;;;;;;3.35;100.00;97271.69;4996204;28;20475;-68
2021/12/08 17:11:51;;;;;;;4.45;2.58;;;;;;;3.32;100.00;97276.84;5000890;28;20022;-70
2021/12/08 17:14:17;;;;;;;3.55;2.13;;;;;;;3.29;100.00;97276.06;4992762;28;20117;-68
2021/12/08 17:16:42;;;;;;;1.83;1.73;;;;;;;3.32;100.00;97276.84;4992792;28;20050;-68
2021/12/08 17:19:10;;;;;;;1.63;1.52;;;;;;;3.35;100.00;97281.09;4992836;28;20471;-75
2021/12/08 17:21:38;;;;;;;1.90;1.58;;;;;;;3.29;100.00;97276.91;4992792;28;20030;-76
2021/12/08 17:24:04;;;;;;;1.25;1.25;;;;;;;3.32;100.00;97281.97;4992673;28;20045;-70
2021/12/08 17:26:30;;;;;;;3.40;2.55;;;;;;;3.40;100.00;97281.88;4992394;28;20026;-71
2021/12/08 17:28:55;;;;;;;1.08;1.05;;;;;;;3.23;100.00;97282.09;4992697;28;20038;-71
2021/12/08 17:31:20;;;;;;;0.98;0.95;;;;;;;3.26;100.00;97282.06;5017585;23;20495;-77
2021/12/08 17:33:46;;;;;;;2.53;2.33;;;;;;;3.18;100.00;97283.84;5012448;28;20053;-77
2021/12/08 17:36:12;;;;;;;2.20;1.75;;;;;;;3.26;100.00;97281.22;5012188;28;20030;-72
2021/12/08 17:38:39;;;;;;;2.38;2.22;;;;;;;3.17;100.00;97282.16;5020164;28;20045;-71
2021/12/08 17:41:07;;;;;;;3.25;2.83;;;;;;;3.21;100.00;97286.38;5020453;28;20075;-74
2021/12/08 17:43:33;;;;;;;1.95;1.85;;;;;;;3.19;100.00;97280.47;4992759;28;20030;-72
2021/12/08 17:46:01;;;;;;;2.13;1.92;;;;;;;3.21;100.00;97283.81;4992523;28;20033;-73
2021/12/08 17:48:29;;;;;;;2.28;2.17;;;;;;;3.23;100.00;97282.09;4991951;28;20467;-71
2021/12/08 17:50:54;;;;;;;2.00;1.80;;;;;;;3.19;100.00;97283.03;4984694;28;20371;-72
2021/12/08 17:53:20;;;;;;;1.67;1.65;;;;;;;3.21;100.00;97288.94;5007700;28;20019;-72
2021/12/08 17:55:45;;;;;;;4.60;2.42;;;;;;;3.25;100.00;97290.59;4991639;28;20044;-73
2021/12/08 17:58:11;;;;;;;2.17;2.00;;;;;;;3.31;100.00;97287.97;4992535;28;20160;-72